sensor_id;sensor_type;location;lat;lon;timestamp;P1;durP1;ratioP1;P2;durP2;ratioP2
51556;SDS011;38766;53.194;5.532;2022-12-13T00:01:13;41.85;;;21.25;;
51556;SDS011;38766;53.194;5.532;2022-12-13T00:03:40;37.22;;;20.60;;
51556;SDS011;38766;53.194;5.532;2022-12-13T00:06:06;35.20;;;19.63;;
51556;SDS011;38766;53.194;5.532;2022-12-13T00:08:33;36.88;;;20.30;;
51556;SDS011;38766;53.194;5.532;2022-12-13T00:10:59;36.92;;;20.02;;
51556;SDS011;38766;53.194;5.532;2022-12-13T00:13:27;37.72;;;20.15;;
51556;SDS011;38766;53.194;5.532;2022-12-13T00:15:57;36.97;;;20.17;;
51556;SDS011;38766;53.194;5.532;2022-12-13T00:18:24;34.47;;;17.90;;
51556;SDS011;38766;53.194;5.532;2022-12-13T00:20:50;36.42;;;18.83;;
51556;SDS011;38766;53.194;5.532;2022-12-13T00:23:16;39.03;;;19.60;;
51556;SDS011;38766;53.194;5.532;2022-12-13T00:25:42;37.95;;;18.92;;
51556;SDS011;38766;53.194;5.532;2022-12-13T00:28:07;31.90;;;18.50;;
51556;SDS011;38766;53.194;5.532;2022-12-13T00:30:33;34.78;;;18.88;;
51556;SDS011;38766;53.194;5.532;2022-12-13T00:32:59;34.03;;;17.55;;
51556;SDS011;38766;53.194;5.532;2022-12-13T00:35:24;36.70;;;19.45;;
51556;SDS011;38766;53.194;5.532;2022-12-13T00:37:50;40.55;;;19.20;;
51556;SDS011;38766;53.194;5.532;2022-12-13T00:40:16;38.17;;;19.45;;
51556;SDS011;38766;53.194;5.532;2022-12-13T00:42:41;34.55;;;17.63;;
51556;SDS011;38766;53.194;5.532;2022-12-13T00:45:07;37.38;;;19.27;;
51556;SDS011;38766;53.194;5.532;2022-12-13T00:47:33;36.88;;;18.25;;
51556;SDS011;38766;53.194;5.532;2022-12-13T00:50:00;33.83;;;18.10;;
51556;SDS011;38766;53.194;5.532;2022-12-13T00:52:26;33.92;;;18.80;;
51556;SDS011;38766;53.194;5.532;2022-12-13T00:54:52;37.05;;;19.13;;
51556;SDS011;38766;53.194;5.532;2022-12-13T00:57:17;33.90;;;18.92;;
51556;SDS011;38766;53.194;5.532;2022-12-13T00:59:43;38.85;;;19.00;;
51556;SDS011;38766;53.194;5.532;2022-12-13T01:02:08;31.73;;;17.67;;
51556;SDS011;38766;53.194;5.532;2022-12-13T01:04:34;35.90;;;19.15;;
51556;SDS011;38766;53.194;5.532;2022-12-13T01:07:00;36.70;;;18.58;;
51556;SDS011;38766;53.194;5.532;2022-12-13T01:09:26;37.63;;;18.15;;
51556;SDS011;38766;53.194;5.532;2022-12-13T01:12:01;33.55;;;18.63;;
51556;SDS011;38766;53.194;5.532;2022-12-13T01:14:29;35.13;;;18.65;;
51556;SDS011;38766;53.194;5.532;2022-12-13T01:16:55;34.72;;;18.85;;
51556;SDS011;38766;53.194;5.532;2022-12-13T01:19:22;31.88;;;17.60;;
51556;SDS011;38766;53.194;5.532;2022-12-13T01:21:48;31.73;;;18.27;;
51556;SDS011;38766;53.194;5.532;2022-12-13T01:24:17;35.50;;;17.67;;
51556;SDS011;38766;53.194;5.532;2022-12-13T01:26:44;32.47;;;17.55;;
51556;SDS011;38766;53.194;5.532;2022-12-13T01:29:10;39.25;;;18.60;;
51556;SDS011;38766;53.194;5.532;2022-12-13T01:31:35;32.85;;;17.63;;
51556;SDS011;38766;53.194;5.532;2022-12-13T01:34:05;35.60;;;18.38;;
51556;SDS011;38766;53.194;5.532;2022-12-13T01:36:34;30.88;;;17.60;;
51556;SDS011;38766;53.194;5.532;2022-12-13T01:39:00;30.15;;;17.35;;
51556;SDS011;38766;53.194;5.532;2022-12-13T01:41:27;40.55;;;17.83;;
51556;SDS011;38766;53.194;5.532;2022-12-13T01:44:03;35.78;;;17.45;;
51556;SDS011;38766;53.194;5.532;2022-12-13T01:46:32;36.63;;;17.58;;
51556;SDS011;38766;53.194;5.532;2022-12-13T01:49:06;33.35;;;17.45;;
51556;SDS011;38766;53.194;5.532;2022-12-13T01:51:36;34.85;;;17.52;;
51556;SDS011;38766;53.194;5.532;2022-12-13T01:54:08;37.22;;;18.80;;
51556;SDS011;38766;53.194;5.532;2022-12-13T01:56:38;35.38;;;16.73;;
51556;SDS011;38766;53.194;5.532;2022-12-13T01:59:06;31.13;;;16.85;;
51556;SDS011;38766;53.194;5.532;2022-12-13T02:01:34;29.77;;;16.05;;
51556;SDS011;38766;53.194;5.532;2022-12-13T02:04:01;35.28;;;17.92;;
51556;SDS011;38766;53.194;5.532;2022-12-13T02:06:29;36.03;;;18.15;;
51556;SDS011;38766;53.194;5.532;2022-12-13T02:09:01;31.10;;;17.57;;
51556;SDS011;38766;53.194;5.532;2022-12-13T02:11:29;36.83;;;17.48;;
51556;SDS011;38766;53.194;5.532;2022-12-13T02:13:55;35.25;;;17.85;;
51556;SDS011;38766;53.194;5.532;2022-12-13T02:16:26;35.17;;;18.23;;
51556;SDS011;38766;53.194;5.532;2022-12-13T02:25:19;35.92;;;17.58;;
51556;SDS011;38766;53.194;5.532;2022-12-13T02:31:16;27.92;;;16.92;;
51556;SDS011;38766;53.194;5.532;2022-12-13T02:33:55;32.45;;;17.13;;
51556;SDS011;38766;53.194;5.532;2022-12-13T02:36:29;32.15;;;17.45;;
51556;SDS011;38766;53.194;5.532;2022-12-13T02:39:19;29.00;;;16.48;;
51556;SDS011;38766;53.194;5.532;2022-12-13T02:41:47;33.92;;;17.15;;
51556;SDS011;38766;53.194;5.532;2022-12-13T02:44:28;32.10;;;16.45;;
51556;SDS011;38766;53.194;5.532;2022-12-13T02:47:03;31.30;;;17.40;;
51556;SDS011;38766;53.194;5.532;2022-12-13T02:49:39;32.50;;;17.45;;
51556;SDS011;38766;53.194;5.532;2022-12-13T02:52:07;30.60;;;17.00;;
51556;SDS011;38766;53.194;5.532;2022-12-13T02:54:35;31.52;;;18.15;;
51556;SDS011;38766;53.194;5.532;2022-12-13T02:57:01;31.05;;;17.60;;
51556;SDS011;38766;53.194;5.532;2022-12-13T02:59:29;27.88;;;16.25;;
51556;SDS011;38766;53.194;5.532;2022-12-13T03:07:38;30.25;;;16.00;;
51556;SDS011;38766;53.194;5.532;2022-12-13T03:10:14;32.90;;;16.92;;
51556;SDS011;38766;53.194;5.532;2022-12-13T03:15:42;32.92;;;16.02;;
51556;SDS011;38766;53.194;5.532;2022-12-13T03:18:16;32.25;;;16.27;;
51556;SDS011;38766;53.194;5.532;2022-12-13T03:20:45;32.33;;;16.48;;
51556;SDS011;38766;53.194;5.532;2022-12-13T03:23:12;33.00;;;16.75;;
51556;SDS011;38766;53.194;5.532;2022-12-13T03:25:39;32.25;;;16.73;;
51556;SDS011;38766;53.194;5.532;2022-12-13T03:28:05;27.77;;;15.98;;
51556;SDS011;38766;53.194;5.532;2022-12-13T03:30:40;25.92;;;15.10;;
51556;SDS011;38766;53.194;5.532;2022-12-13T03:33:06;30.58;;;16.40;;
51556;SDS011;38766;53.194;5.532;2022-12-13T03:35:31;29.00;;;15.55;;
51556;SDS011;38766;53.194;5.532;2022-12-13T03:37:57;28.92;;;16.25;;
51556;SDS011;38766;53.194;5.532;2022-12-13T03:40:25;29.17;;;15.68;;
51556;SDS011;38766;53.194;5.532;2022-12-13T03:42:53;30.30;;;16.17;;
51556;SDS011;38766;53.194;5.532;2022-12-13T03:45:18;26.25;;;15.57;;
51556;SDS011;38766;53.194;5.532;2022-12-13T03:47:45;26.70;;;15.65;;
51556;SDS011;38766;53.194;5.532;2022-12-13T03:50:10;28.38;;;16.05;;
51556;SDS011;38766;53.194;5.532;2022-12-13T03:52:36;30.48;;;16.52;;
51556;SDS011;38766;53.194;5.532;2022-12-13T03:55:02;28.00;;;16.55;;
51556;SDS011;38766;53.194;5.532;2022-12-13T03:57:28;26.85;;;16.20;;
51556;SDS011;38766;53.194;5.532;2022-12-13T03:59:53;28.98;;;15.48;;
51556;SDS011;38766;53.194;5.532;2022-12-13T04:02:19;26.05;;;16.20;;
51556;SDS011;38766;53.194;5.532;2022-12-13T04:04:45;30.40;;;16.42;;
51556;SDS011;38766;53.194;5.532;2022-12-13T04:07:10;25.73;;;15.52;;
51556;SDS011;38766;53.194;5.532;2022-12-13T04:09:37;31.52;;;16.27;;
51556;SDS011;38766;53.194;5.532;2022-12-13T04:12:03;29.23;;;15.68;;
51556;SDS011;38766;53.194;5.532;2022-12-13T04:14:47;25.63;;;14.82;;
51556;SDS011;38766;53.194;5.532;2022-12-13T04:17:12;27.85;;;15.27;;
51556;SDS011;38766;53.194;5.532;2022-12-13T04:19:38;28.50;;;16.17;;
51556;SDS011;38766;53.194;5.532;2022-12-13T04:22:04;28.75;;;16.80;;
51556;SDS011;38766;53.194;5.532;2022-12-13T04:24:29;26.92;;;16.30;;
51556;SDS011;38766;53.194;5.532;2022-12-13T04:26:55;29.20;;;15.95;;
51556;SDS011;38766;53.194;5.532;2022-12-13T04:29:20;27.45;;;16.90;;
51556;SDS011;38766;53.194;5.532;2022-12-13T04:31:46;29.45;;;16.02;;
51556;SDS011;38766;53.194;5.532;2022-12-13T04:34:12;26.13;;;16.23;;
51556;SDS011;38766;53.194;5.532;2022-12-13T04:36:37;24.67;;;15.85;;
51556;SDS011;38766;53.194;5.532;2022-12-13T04:39:03;28.52;;;16.80;;
51556;SDS011;38766;53.194;5.532;2022-12-13T04:41:33;31.05;;;16.95;;
51556;SDS011;38766;53.194;5.532;2022-12-13T04:44:03;32.20;;;17.48;;
51556;SDS011;38766;53.194;5.532;2022-12-13T04:46:30;33.80;;;17.48;;
51556;SDS011;38766;53.194;5.532;2022-12-13T04:48:55;30.58;;;17.25;;
51556;SDS011;38766;53.194;5.532;2022-12-13T04:51:21;31.75;;;17.90;;
51556;SDS011;38766;53.194;5.532;2022-12-13T04:53:47;30.25;;;16.83;;
51556;SDS011;38766;53.194;5.532;2022-12-13T04:56:12;28.30;;;16.25;;
51556;SDS011;38766;53.194;5.532;2022-12-13T04:58:38;29.17;;;16.77;;
51556;SDS011;38766;53.194;5.532;2022-12-13T05:01:07;29.30;;;18.02;;
51556;SDS011;38766;53.194;5.532;2022-12-13T05:03:34;31.33;;;17.15;;
51556;SDS011;38766;53.194;5.532;2022-12-13T05:06:03;31.08;;;17.77;;
51556;SDS011;38766;53.194;5.532;2022-12-13T05:08:32;34.22;;;17.63;;
51556;SDS011;38766;53.194;5.532;2022-12-13T05:10:59;32.47;;;17.48;;
51556;SDS011;38766;53.194;5.532;2022-12-13T05:13:25;27.75;;;17.00;;
51556;SDS011;38766;53.194;5.532;2022-12-13T05:15:57;28.70;;;17.00;;
51556;SDS011;38766;53.194;5.532;2022-12-13T05:18:24;31.00;;;16.90;;
51556;SDS011;38766;53.194;5.532;2022-12-13T05:20:50;27.55;;;16.58;;
51556;SDS011;38766;53.194;5.532;2022-12-13T05:23:17;34.30;;;18.40;;
51556;SDS011;38766;53.194;5.532;2022-12-13T05:25:47;30.98;;;17.35;;
51556;SDS011;38766;53.194;5.532;2022-12-13T05:28:13;26.98;;;16.42;;
51556;SDS011;38766;53.194;5.532;2022-12-13T05:30:42;29.02;;;17.20;;
51556;SDS011;38766;53.194;5.532;2022-12-13T05:33:08;32.33;;;17.30;;
51556;SDS011;38766;53.194;5.532;2022-12-13T05:35:34;27.23;;;17.60;;
51556;SDS011;38766;53.194;5.532;2022-12-13T05:38:00;30.85;;;17.23;;
51556;SDS011;38766;53.194;5.532;2022-12-13T05:40:26;27.27;;;16.52;;
51556;SDS011;38766;53.194;5.532;2022-12-13T05:42:53;25.30;;;15.80;;
51556;SDS011;38766;53.194;5.532;2022-12-13T05:45:19;31.75;;;16.98;;
51556;SDS011;38766;53.194;5.532;2022-12-13T05:47:45;27.42;;;15.93;;
51556;SDS011;38766;53.194;5.532;2022-12-13T05:50:12;26.40;;;16.50;;
51556;SDS011;38766;53.194;5.532;2022-12-13T05:52:39;28.15;;;17.35;;
51556;SDS011;38766;53.194;5.532;2022-12-13T05:55:06;28.00;;;16.67;;
51556;SDS011;38766;53.194;5.532;2022-12-13T05:57:32;28.27;;;16.10;;
51556;SDS011;38766;53.194;5.532;2022-12-13T05:59:57;34.72;;;17.85;;
51556;SDS011;38766;53.194;5.532;2022-12-13T06:02:23;26.90;;;16.23;;
51556;SDS011;38766;53.194;5.532;2022-12-13T06:04:48;28.83;;;16.27;;
51556;SDS011;38766;53.194;5.532;2022-12-13T06:07:14;23.27;;;14.85;;
51556;SDS011;38766;53.194;5.532;2022-12-13T06:09:40;31.45;;;17.05;;
51556;SDS011;38766;53.194;5.532;2022-12-13T06:12:06;29.40;;;16.27;;
51556;SDS011;38766;53.194;5.532;2022-12-13T06:14:33;27.20;;;15.77;;
51556;SDS011;38766;53.194;5.532;2022-12-13T06:16:59;26.33;;;15.10;;
51556;SDS011;38766;53.194;5.532;2022-12-13T06:19:25;26.48;;;15.95;;
51556;SDS011;38766;53.194;5.532;2022-12-13T06:21:51;27.63;;;15.65;;
51556;SDS011;38766;53.194;5.532;2022-12-13T06:24:19;31.17;;;16.58;;
51556;SDS011;38766;53.194;5.532;2022-12-13T06:26:46;28.33;;;16.45;;
51556;SDS011;38766;53.194;5.532;2022-12-13T06:29:13;30.52;;;16.85;;
51556;SDS011;38766;53.194;5.532;2022-12-13T06:31:39;29.60;;;16.60;;
51556;SDS011;38766;53.194;5.532;2022-12-13T06:34:04;27.73;;;16.13;;
51556;SDS011;38766;53.194;5.532;2022-12-13T06:36:30;28.33;;;16.25;;
51556;SDS011;38766;53.194;5.532;2022-12-13T06:38:56;27.95;;;15.13;;
51556;SDS011;38766;53.194;5.532;2022-12-13T06:41:26;29.95;;;15.93;;
51556;SDS011;38766;53.194;5.532;2022-12-13T06:43:52;26.15;;;16.17;;
51556;SDS011;38766;53.194;5.532;2022-12-13T06:46:20;27.25;;;16.20;;
51556;SDS011;38766;53.194;5.532;2022-12-13T06:48:51;32.38;;;16.42;;
51556;SDS011;38766;53.194;5.532;2022-12-13T06:51:17;26.10;;;15.27;;
51556;SDS011;38766;53.194;5.532;2022-12-13T06:53:43;24.90;;;16.20;;
51556;SDS011;38766;53.194;5.532;2022-12-13T06:56:09;25.85;;;15.55;;
51556;SDS011;38766;53.194;5.532;2022-12-13T06:58:36;25.92;;;15.82;;
51556;SDS011;38766;53.194;5.532;2022-12-13T07:01:03;26.65;;;15.88;;
51556;SDS011;38766;53.194;5.532;2022-12-13T07:03:40;27.67;;;16.17;;
51556;SDS011;38766;53.194;5.532;2022-12-13T07:06:07;30.73;;;16.30;;
51556;SDS011;38766;53.194;5.532;2022-12-13T07:08:41;30.70;;;16.38;;
51556;SDS011;38766;53.194;5.532;2022-12-13T07:11:12;31.58;;;17.50;;
51556;SDS011;38766;53.194;5.532;2022-12-13T07:13:39;24.95;;;14.57;;
51556;SDS011;38766;53.194;5.532;2022-12-13T07:16:04;24.20;;;15.20;;
51556;SDS011;38766;53.194;5.532;2022-12-13T07:18:30;26.02;;;15.57;;
51556;SDS011;38766;53.194;5.532;2022-12-13T07:20:56;27.05;;;15.75;;
51556;SDS011;38766;53.194;5.532;2022-12-13T07:23:21;25.92;;;14.23;;
51556;SDS011;38766;53.194;5.532;2022-12-13T07:25:53;25.73;;;15.35;;
51556;SDS011;38766;53.194;5.532;2022-12-13T07:28:19;27.38;;;15.38;;
51556;SDS011;38766;53.194;5.532;2022-12-13T07:30:46;29.02;;;14.55;;
51556;SDS011;38766;53.194;5.532;2022-12-13T07:33:12;28.73;;;15.82;;
51556;SDS011;38766;53.194;5.532;2022-12-13T07:35:38;28.10;;;15.85;;
51556;SDS011;38766;53.194;5.532;2022-12-13T07:38:05;30.80;;;16.35;;
51556;SDS011;38766;53.194;5.532;2022-12-13T07:40:32;29.73;;;15.85;;
51556;SDS011;38766;53.194;5.532;2022-12-13T07:43:02;25.80;;;15.57;;
51556;SDS011;38766;53.194;5.532;2022-12-13T07:45:27;27.67;;;16.48;;
51556;SDS011;38766;53.194;5.532;2022-12-13T07:47:53;27.90;;;15.48;;
51556;SDS011;38766;53.194;5.532;2022-12-13T07:50:19;28.35;;;16.05;;
51556;SDS011;38766;53.194;5.532;2022-12-13T07:52:49;27.05;;;15.32;;
51556;SDS011;38766;53.194;5.532;2022-12-13T07:55:15;28.95;;;15.70;;
51556;SDS011;38766;53.194;5.532;2022-12-13T07:57:42;25.08;;;15.82;;
51556;SDS011;38766;53.194;5.532;2022-12-13T08:00:08;29.05;;;15.73;;
51556;SDS011;38766;53.194;5.532;2022-12-13T08:02:34;26.70;;;15.25;;
51556;SDS011;38766;53.194;5.532;2022-12-13T08:05:00;26.77;;;16.60;;
51556;SDS011;38766;53.194;5.532;2022-12-13T08:07:25;26.42;;;15.38;;
51556;SDS011;38766;53.194;5.532;2022-12-13T08:09:51;24.98;;;14.45;;
51556;SDS011;38766;53.194;5.532;2022-12-13T08:12:17;21.75;;;13.45;;
51556;SDS011;38766;53.194;5.532;2022-12-13T08:14:42;26.05;;;14.52;;
51556;SDS011;38766;53.194;5.532;2022-12-13T08:17:08;27.30;;;15.60;;
51556;SDS011;38766;53.194;5.532;2022-12-13T08:19:33;29.27;;;15.65;;
51556;SDS011;38766;53.194;5.532;2022-12-13T08:21:59;27.50;;;15.52;;
51556;SDS011;38766;53.194;5.532;2022-12-13T08:24:26;26.05;;;14.32;;
51556;SDS011;38766;53.194;5.532;2022-12-13T08:26:53;27.35;;;14.35;;
51556;SDS011;38766;53.194;5.532;2022-12-13T08:29:21;27.42;;;15.23;;
51556;SDS011;38766;53.194;5.532;2022-12-13T08:31:46;24.92;;;14.65;;
51556;SDS011;38766;53.194;5.532;2022-12-13T08:34:12;27.17;;;15.38;;
51556;SDS011;38766;53.194;5.532;2022-12-13T08:36:38;27.50;;;14.35;;
51556;SDS011;38766;53.194;5.532;2022-12-13T08:39:04;29.80;;;15.57;;
51556;SDS011;38766;53.194;5.532;2022-12-13T08:41:30;24.10;;;14.77;;
51556;SDS011;38766;53.194;5.532;2022-12-13T08:43:55;28.08;;;15.20;;
51556;SDS011;38766;53.194;5.532;2022-12-13T08:46:21;29.80;;;15.60;;
51556;SDS011;38766;53.194;5.532;2022-12-13T08:48:46;29.38;;;16.35;;
51556;SDS011;38766;53.194;5.532;2022-12-13T08:51:13;22.92;;;14.52;;
51556;SDS011;38766;53.194;5.532;2022-12-13T08:53:39;28.55;;;16.10;;
51556;SDS011;38766;53.194;5.532;2022-12-13T08:56:06;25.85;;;15.45;;
51556;SDS011;38766;53.194;5.532;2022-12-13T08:58:36;31.20;;;16.60;;
51556;SDS011;38766;53.194;5.532;2022-12-13T09:01:06;28.15;;;15.73;;
51556;SDS011;38766;53.194;5.532;2022-12-13T09:03:32;28.17;;;15.23;;
51556;SDS011;38766;53.194;5.532;2022-12-13T09:06:05;23.50;;;15.23;;
51556;SDS011;38766;53.194;5.532;2022-12-13T09:08:35;26.23;;;15.45;;
51556;SDS011;38766;53.194;5.532;2022-12-13T09:11:01;26.00;;;15.10;;
51556;SDS011;38766;53.194;5.532;2022-12-13T09:13:28;29.17;;;14.43;;
51556;SDS011;38766;53.194;5.532;2022-12-13T09:15:56;22.38;;;13.98;;
51556;SDS011;38766;53.194;5.532;2022-12-13T09:18:23;27.67;;;14.65;;
51556;SDS011;38766;53.194;5.532;2022-12-13T09:20:48;27.23;;;15.18;;
51556;SDS011;38766;53.194;5.532;2022-12-13T09:23:19;28.80;;;13.40;;
51556;SDS011;38766;53.194;5.532;2022-12-13T09:25:51;24.42;;;13.52;;
51556;SDS011;38766;53.194;5.532;2022-12-13T09:28:18;23.13;;;12.77;;
51556;SDS011;38766;53.194;5.532;2022-12-13T09:30:44;19.50;;;12.77;;
51556;SDS011;38766;53.194;5.532;2022-12-13T09:33:10;21.17;;;12.73;;
51556;SDS011;38766;53.194;5.532;2022-12-13T09:35:36;21.02;;;12.38;;
51556;SDS011;38766;53.194;5.532;2022-12-13T09:38:02;24.80;;;11.27;;
51556;SDS011;38766;53.194;5.532;2022-12-13T09:40:28;21.67;;;12.15;;
51556;SDS011;38766;53.194;5.532;2022-12-13T09:42:55;20.88;;;11.40;;
51556;SDS011;38766;53.194;5.532;2022-12-13T09:45:22;22.38;;;11.60;;
51556;SDS011;38766;53.194;5.532;2022-12-13T09:47:48;21.88;;;11.15;;
51556;SDS011;38766;53.194;5.532;2022-12-13T09:50:19;23.42;;;12.35;;
51556;SDS011;38766;53.194;5.532;2022-12-13T09:52:49;19.63;;;12.32;;
51556;SDS011;38766;53.194;5.532;2022-12-13T09:57:53;22.38;;;13.73;;
51556;SDS011;38766;53.194;5.532;2022-12-13T10:00:21;22.75;;;12.75;;
51556;SDS011;38766;53.194;5.532;2022-12-13T10:02:53;23.63;;;12.95;;
51556;SDS011;38766;53.194;5.532;2022-12-13T10:08:00;25.80;;;13.43;;
51556;SDS011;38766;53.194;5.532;2022-12-13T10:10:39;25.63;;;13.68;;
51556;SDS011;38766;53.194;5.532;2022-12-13T10:15:50;27.40;;;13.88;;
51556;SDS011;38766;53.194;5.532;2022-12-13T10:18:32;26.75;;;15.02;;
51556;SDS011;38766;53.194;5.532;2022-12-13T10:21:00;21.65;;;13.60;;
51556;SDS011;38766;53.194;5.532;2022-12-13T10:23:28;22.33;;;13.38;;
51556;SDS011;38766;53.194;5.532;2022-12-13T10:25:55;23.10;;;13.68;;
51556;SDS011;38766;53.194;5.532;2022-12-13T10:28:25;26.02;;;14.05;;
51556;SDS011;38766;53.194;5.532;2022-12-13T10:30:53;27.83;;;14.15;;
51556;SDS011;38766;53.194;5.532;2022-12-13T10:33:21;23.00;;;13.23;;
51556;SDS011;38766;53.194;5.532;2022-12-13T10:38:30;21.45;;;12.10;;
51556;SDS011;38766;53.194;5.532;2022-12-13T10:41:00;21.42;;;12.43;;
51556;SDS011;38766;53.194;5.532;2022-12-13T10:43:25;20.88;;;13.25;;
51556;SDS011;38766;53.194;5.532;2022-12-13T10:51:06;20.30;;;12.23;;
51556;SDS011;38766;53.194;5.532;2022-12-13T10:53:44;21.20;;;12.63;;
51556;SDS011;38766;53.194;5.532;2022-12-13T10:56:19;20.98;;;12.52;;
51556;SDS011;38766;53.194;5.532;2022-12-13T10:58:47;20.20;;;12.90;;
51556;SDS011;38766;53.194;5.532;2022-12-13T11:03:58;23.67;;;13.57;;
51556;SDS011;38766;53.194;5.532;2022-12-13T11:06:39;21.52;;;12.25;;
51556;SDS011;38766;53.194;5.532;2022-12-13T11:09:13;23.63;;;12.63;;
51556;SDS011;38766;53.194;5.532;2022-12-13T11:11:39;20.35;;;12.68;;
51556;SDS011;38766;53.194;5.532;2022-12-13T11:14:12;19.88;;;12.45;;
51556;SDS011;38766;53.194;5.532;2022-12-13T11:16:43;21.10;;;12.98;;
51556;SDS011;38766;53.194;5.532;2022-12-13T11:19:21;20.55;;;13.10;;
51556;SDS011;38766;53.194;5.532;2022-12-13T11:21:56;19.55;;;13.00;;
51556;SDS011;38766;53.194;5.532;2022-12-13T11:24:33;20.70;;;12.88;;
51556;SDS011;38766;53.194;5.532;2022-12-13T11:27:19;19.85;;;13.13;;
51556;SDS011;38766;53.194;5.532;2022-12-13T11:30:11;21.90;;;12.55;;
51556;SDS011;38766;53.194;5.532;2022-12-13T11:33:05;21.27;;;12.68;;
51556;SDS011;38766;53.194;5.532;2022-12-13T11:41:22;20.30;;;12.65;;
51556;SDS011;38766;53.194;5.532;2022-12-13T11:46:39;21.20;;;12.85;;
51556;SDS011;38766;53.194;5.532;2022-12-13T11:49:27;21.00;;;12.98;;
51556;SDS011;38766;53.194;5.532;2022-12-13T11:52:04;19.67;;;12.25;;
51556;SDS011;38766;53.194;5.532;2022-12-13T11:54:53;22.95;;;12.45;;
51556;SDS011;38766;53.194;5.532;2022-12-13T12:00:28;21.10;;;12.70;;
51556;SDS011;38766;53.194;5.532;2022-12-13T12:03:00;17.73;;;11.13;;
51556;SDS011;38766;53.194;5.532;2022-12-13T12:05:47;20.17;;;12.15;;
51556;SDS011;38766;53.194;5.532;2022-12-13T12:08:24;21.42;;;12.80;;
51556;SDS011;38766;53.194;5.532;2022-12-13T12:13:42;21.33;;;11.18;;
51556;SDS011;38766;53.194;5.532;2022-12-13T12:16:19;18.88;;;11.27;;
51556;SDS011;38766;53.194;5.532;2022-12-13T12:18:54;20.65;;;11.98;;
51556;SDS011;38766;53.194;5.532;2022-12-13T12:23:55;21.13;;;11.75;;
51556;SDS011;38766;53.194;5.532;2022-12-13T12:37:49;18.38;;;10.55;;
51556;SDS011;38766;53.194;5.532;2022-12-13T12:40:27;19.15;;;11.30;;
51556;SDS011;38766;53.194;5.532;2022-12-13T12:45:53;17.90;;;11.63;;
51556;SDS011;38766;53.194;5.532;2022-12-13T12:51:17;19.45;;;11.68;;
51556;SDS011;38766;53.194;5.532;2022-12-13T13:02:05;17.65;;;10.95;;
51556;SDS011;38766;53.194;5.532;2022-12-13T13:04:47;19.40;;;10.32;;
51556;SDS011;38766;53.194;5.532;2022-12-13T13:07:20;16.92;;;10.30;;
51556;SDS011;38766;53.194;5.532;2022-12-13T13:09:56;17.92;;;10.27;;
51556;SDS011;38766;53.194;5.532;2022-12-13T13:12:23;18.20;;;10.50;;
51556;SDS011;38766;53.194;5.532;2022-12-13T13:14:49;18.90;;;10.52;;
51556;SDS011;38766;53.194;5.532;2022-12-13T13:22:35;17.67;;;10.27;;
51556;SDS011;38766;53.194;5.532;2022-12-13T13:27:30;17.35;;;10.00;;
51556;SDS011;38766;53.194;5.532;2022-12-13T13:32:41;15.75;;;9.85;;
51556;SDS011;38766;53.194;5.532;2022-12-13T13:37:55;18.17;;;11.18;;
51556;SDS011;38766;53.194;5.532;2022-12-13T13:45:49;19.10;;;11.07;;
51556;SDS011;38766;53.194;5.532;2022-12-13T13:54:19;19.83;;;11.80;;
51556;SDS011;38766;53.194;5.532;2022-12-13T14:08:20;21.02;;;12.57;;
51556;SDS011;38766;53.194;5.532;2022-12-13T14:11:16;20.95;;;13.32;;
51556;SDS011;38766;53.194;5.532;2022-12-13T14:14:13;21.80;;;13.18;;
51556;SDS011;38766;53.194;5.532;2022-12-13T14:17:29;25.55;;;14.00;;
51556;SDS011;38766;53.194;5.532;2022-12-13T14:31:52;24.80;;;15.05;;
51556;SDS011;38766;53.194;5.532;2022-12-13T14:34:01;22.95;;;13.50;;
51556;SDS011;38766;53.194;5.532;2022-12-13T14:36:29;26.92;;;14.75;;
51556;SDS011;38766;53.194;5.532;2022-12-13T14:39:11;21.15;;;13.63;;
51556;SDS011;38766;53.194;5.532;2022-12-13T14:41:44;26.92;;;14.82;;
51556;SDS011;38766;53.194;5.532;2022-12-13T14:46:54;25.40;;;14.98;;
51556;SDS011;38766;53.194;5.532;2022-12-13T14:49:24;26.92;;;15.40;;
51556;SDS011;38766;53.194;5.532;2022-12-13T14:51:55;25.15;;;15.05;;
51556;SDS011;38766;53.194;5.532;2022-12-13T14:57:16;28.77;;;16.55;;
51556;SDS011;38766;53.194;5.532;2022-12-13T14:59:48;24.08;;;15.60;;
51556;SDS011;38766;53.194;5.532;2022-12-13T15:02:18;26.85;;;15.30;;
51556;SDS011;38766;53.194;5.532;2022-12-13T15:04:45;28.58;;;15.40;;
51556;SDS011;38766;53.194;5.532;2022-12-13T15:07:22;25.00;;;15.77;;
51556;SDS011;38766;53.194;5.532;2022-12-13T15:09:56;27.65;;;16.80;;
51556;SDS011;38766;53.194;5.532;2022-12-13T15:12:25;29.15;;;17.00;;
51556;SDS011;38766;53.194;5.532;2022-12-13T15:14:57;31.23;;;18.27;;
51556;SDS011;38766;53.194;5.532;2022-12-13T15:17:27;34.05;;;17.60;;
51556;SDS011;38766;53.194;5.532;2022-12-13T15:19:55;30.30;;;18.13;;
51556;SDS011;38766;53.194;5.532;2022-12-13T15:22:21;27.35;;;17.15;;
51556;SDS011;38766;53.194;5.532;2022-12-13T15:24:46;29.77;;;18.17;;
51556;SDS011;38766;53.194;5.532;2022-12-13T15:27:14;28.83;;;17.42;;
51556;SDS011;38766;53.194;5.532;2022-12-13T15:29:45;28.88;;;17.73;;
51556;SDS011;38766;53.194;5.532;2022-12-13T15:32:16;28.60;;;17.42;;
51556;SDS011;38766;53.194;5.532;2022-12-13T15:34:44;27.58;;;17.60;;
51556;SDS011;38766;53.194;5.532;2022-12-13T15:37:17;34.28;;;19.42;;
51556;SDS011;38766;53.194;5.532;2022-12-13T15:39:47;31.50;;;18.45;;
51556;SDS011;38766;53.194;5.532;2022-12-13T15:42:15;34.58;;;18.05;;
51556;SDS011;38766;53.194;5.532;2022-12-13T15:44:46;35.28;;;19.63;;
51556;SDS011;38766;53.194;5.532;2022-12-13T15:47:18;34.83;;;19.55;;
51556;SDS011;38766;53.194;5.532;2022-12-13T15:49:55;31.92;;;18.13;;
51556;SDS011;38766;53.194;5.532;2022-12-13T15:57:33;34.70;;;19.00;;
51556;SDS011;38766;53.194;5.532;2022-12-13T16:05:38;31.00;;;18.02;;
51556;SDS011;38766;53.194;5.532;2022-12-13T16:08:43;34.60;;;19.27;;
51556;SDS011;38766;53.194;5.532;2022-12-13T16:11:03;30.23;;;17.90;;
51556;SDS011;38766;53.194;5.532;2022-12-13T16:13:32;34.20;;;19.10;;
51556;SDS011;38766;53.194;5.532;2022-12-13T16:16:24;35.95;;;19.70;;
51556;SDS011;38766;53.194;5.532;2022-12-13T16:18:52;33.08;;;17.95;;
51556;SDS011;38766;53.194;5.532;2022-12-13T16:21:23;31.20;;;18.50;;
51556;SDS011;38766;53.194;5.532;2022-12-13T16:23:49;34.85;;;19.70;;
51556;SDS011;38766;53.194;5.532;2022-12-13T16:26:22;34.45;;;19.02;;
51556;SDS011;38766;53.194;5.532;2022-12-13T16:28:50;33.97;;;19.15;;
51556;SDS011;38766;53.194;5.532;2022-12-13T16:31:17;30.20;;;18.05;;
51556;SDS011;38766;53.194;5.532;2022-12-13T16:33:45;36.70;;;19.45;;
51556;SDS011;38766;53.194;5.532;2022-12-13T16:36:11;39.70;;;21.48;;
51556;SDS011;38766;53.194;5.532;2022-12-13T16:38:37;30.80;;;18.63;;
51556;SDS011;38766;53.194;5.532;2022-12-13T16:41:03;33.08;;;18.35;;
51556;SDS011;38766;53.194;5.532;2022-12-13T16:43:30;30.50;;;17.60;;
51556;SDS011;38766;53.194;5.532;2022-12-13T16:45:58;36.25;;;18.48;;
51556;SDS011;38766;53.194;5.532;2022-12-13T16:48:27;36.20;;;18.55;;
51556;SDS011;38766;53.194;5.532;2022-12-13T16:50:53;38.10;;;21.50;;
51556;SDS011;38766;53.194;5.532;2022-12-13T16:53:19;39.17;;;20.85;;
51556;SDS011;38766;53.194;5.532;2022-12-13T16:55:45;35.50;;;20.27;;